Time;durP1;ratioP1;P1;durP2;ratioP2;P2;SDS_P1;SDS_P2;PMS_P1;PMS_P2;Temp;Humidity;BMP_temperature;BMP_pressure;BME280_temperature;BME280_humidity;BME280_pressure;Samples;Min_cycle;Max_cycle;Signal;HPM_P1;HPM_P2
2021/05/22 00:01:13;;;;;;;6.60;2.65;;;;;;;6.58;87.75;98255.19;5052822;28;20537;-58
2021/05/22 00:03:38;;;;;;;7.60;2.50;;;;;;;6.58;87.37;98251.72;5053142;28;20029;-58
2021/05/22 00:06:04;;;;;;;7.65;2.22;;;;;;;6.53;87.18;98244.44;5034681;28;20047;-59
2021/05/22 00:08:30;;;;;;;6.40;2.38;;;;;;;6.42;88.17;98251.44;5053360;28;20491;-59
2021/05/22 00:10:55;;;;;;;11.20;2.72;;;;;;;6.42;88.47;98248.78;5054333;28;20052;-60
2021/05/22 00:13:20;;;;;;;12.55;2.83;;;;;;;6.43;88.21;98246.94;5052886;28;20039;-59
2021/05/22 00:15:46;;;;;;;11.20;3.00;;;;;;;6.44;88.53;98245.88;5052490;28;20041;-59
2021/05/22 00:18:11;;;;;;;8.20;2.45;;;;;;;6.32;88.52;98242.50;5051653;28;20033;-59
2021/05/22 00:20:37;;;;;;;9.75;2.90;;;;;;;6.29;88.70;98248.25;5052713;28;20040;-59
2021/05/22 00:23:02;;;;;;;8.90;2.78;;;;;;;6.27;88.52;98256.50;5052826;28;20422;-60
2021/05/22 00:25:28;;;;;;;6.40;2.20;;;;;;;6.22;88.43;98249.22;5051257;28;20434;-59
2021/05/22 00:27:53;;;;;;;10.00;2.80;;;;;;;6.25;89.29;98243.44;5053011;28;20025;-59
2021/05/22 00:30:19;;;;;;;10.10;2.40;;;;;;;6.16;88.96;98241.38;5051168;28;20033;-59
2021/05/22 00:32:44;;;;;;;9.75;2.53;;;;;;;6.13;88.42;98250.66;5051544;28;20059;-59
2021/05/22 00:35:10;;;;;;;9.48;3.10;;;;;;;6.22;88.76;98254.56;5052620;28;20021;-59
2021/05/22 00:37:35;;;;;;;7.68;2.75;;;;;;;6.26;88.98;98255.69;5052714;28;20211;-59
2021/05/22 00:40:01;;;;;;;7.88;2.58;;;;;;;6.37;88.88;98245.25;5052345;28;20037;-59
2021/05/22 00:42:26;;;;;;;5.38;2.50;;;;;;;6.43;89.22;98244.28;5052761;28;20112;-59
2021/05/22 00:45:05;;;;;;;6.68;2.25;;;;;;;6.60;87.97;98242.44;5052735;28;20530;-59
2021/05/22 00:47:33;;;;;;;12.40;3.00;;;;;;;6.62;87.53;98245.69;5052576;28;20072;-59
2021/05/22 00:49:58;;;;;;;7.72;2.45;;;;;;;6.67;87.66;98239.63;5052622;28;20068;-58
2021/05/22 00:52:27;;;;;;;10.52;2.75;;;;;;;6.59;87.70;98243.50;5052238;28;20067;-59
2021/05/22 00:54:52;;;;;;;10.30;2.72;;;;;;;6.61;87.59;98244.03;5052524;28;20683;-59
2021/05/22 00:57:18;;;;;;;8.93;2.70;;;;;;;6.56;87.70;98254.59;5052054;28;20040;-59
2021/05/22 00:59:43;;;;;;;7.00;2.30;;;;;;;6.50;88.07;98250.25;5018191;28;20033;-59
2021/05/22 01:02:12;;;;;;;7.32;2.45;;;;;;;6.44;87.75;98251.19;5052026;28;20037;-59
2021/05/22 01:04:37;;;;;;;11.45;2.83;;;;;;;6.46;87.76;98249.09;5052543;28;20494;-59
2021/05/22 01:07:03;;;;;;;11.95;2.78;;;;;;;6.53;88.24;98244.44;5052899;28;20049;-58
2021/05/22 01:09:29;;;;;;;8.50;2.50;;;;;;;6.59;87.66;98250.66;5056313;28;20135;-59
2021/05/22 01:11:55;;;;;;;9.85;2.60;;;;;;;6.50;88.22;98242.28;5037831;28;20411;-59
2021/05/22 01:14:26;;;;;;;6.47;2.38;;;;;;;6.51;88.09;98245.72;5056106;28;20048;-59
2021/05/22 01:16:52;;;;;;;;;;;;;;;6.48;87.75;98242.50;5056236;28;20037;-58
2021/05/22 01:19:27;;;;;;;9.80;2.63;;;;;;;6.39;87.82;98243.94;5054971;28;19912;-59
2021/05/22 01:21:53;;;;;;;8.57;2.50;;;;;;;6.34;88.33;98241.19;5038025;28;20037;-59
2021/05/22 01:24:20;;;;;;;10.55;3.10;;;;;;;6.32;88.03;98242.50;5054812;28;20379;-59
2021/05/22 01:26:45;;;;;;;9.55;2.83;;;;;;;6.25;88.24;98248.75;5037985;28;20037;-58
2021/05/22 01:29:11;;;;;;;6.00;2.50;;;;;;;6.26;88.01;98250.38;5054482;28;20036;-59
2021/05/22 01:31:36;;;;;;;11.52;2.67;;;;;;;6.36;87.83;98248.94;5054162;28;20099;-58
2021/05/22 01:34:02;;;;;;;7.63;2.53;;;;;;;6.39;87.98;98248.44;5055933;28;20029;-59
2021/05/22 01:36:27;;;;;;;8.52;2.60;;;;;;;6.50;87.55;98250.25;5054095;28;20064;-59
2021/05/22 01:38:52;;;;;;;9.38;2.40;;;;;;;6.57;87.18;98255.44;5055787;28;20383;-59
2021/05/22 01:41:18;;;;;;;8.50;2.83;;;;;;;6.67;86.66;98255.59;5055231;28;20029;-59
2021/05/22 01:43:46;;;;;;;8.77;2.40;;;;;;;6.77;86.78;98260.31;5055577;28;20025;-59
2021/05/22 01:46:12;;;;;;;8.65;2.50;;;;;;;6.77;86.42;98265.63;5055302;28;20399;-59
2021/05/22 01:48:37;;;;;;;8.18;2.88;;;;;;;6.93;86.10;98264.00;5054354;28;20033;-59
2021/05/22 01:51:07;;;;;;;8.65;2.38;;;;;;;6.94;86.42;98246.97;5054098;28;20036;-60
2021/05/22 01:53:33;;;;;;;18.70;3.70;;;;;;;6.99;85.93;98244.38;5055565;28;20392;-59
2021/05/22 01:55:58;;;;;;;7.50;2.58;;;;;;;6.94;86.00;98239.81;5037123;28;20044;-58
2021/05/22 01:58:24;;;;;;;8.40;2.50;;;;;;;6.90;86.24;98241.31;5037367;28;20052;-59
2021/05/22 02:00:49;;;;;;;9.57;2.65;;;;;;;6.82;86.26;98241.75;5057402;28;20049;-59
2021/05/22 02:03:27;;;;;;;7.03;2.70;;;;;;;6.83;86.23;98248.66;5055177;28;20479;-59
2021/05/22 02:05:53;;;;;;;9.13;3.00;;;;;;;6.86;86.02;98241.03;5053674;28;20131;-59
2021/05/22 02:08:20;;;;;;;6.20;2.50;;;;;;;6.88;85.74;98235.44;5020645;28;20041;-59
2021/05/22 02:10:48;;;;;;;9.00;2.92;;;;;;;6.84;85.63;98240.44;5053645;28;20113;-59
2021/05/22 02:13:14;;;;;;;10.30;3.13;;;;;;;6.83;85.77;98243.34;5057148;28;20470;-58
2021/05/22 02:15:40;;;;;;;8.13;2.60;;;;;;;6.83;85.43;98244.13;5074984;28;20028;-59
2021/05/22 02:18:05;;;;;;;6.70;2.38;;;;;;;6.80;86.26;98244.63;5056906;28;20478;-59
2021/05/22 02:20:31;;;;;;;9.40;2.95;;;;;;;6.86;86.11;98243.69;5073471;28;20048;-58
2021/05/22 02:22:57;;;;;;;7.88;2.78;;;;;;;6.93;85.42;98238.16;5075002;28;20029;-58
2021/05/22 02:25:22;;;;;;;10.43;2.83;;;;;;;6.92;85.75;98233.91;5073028;28;20036;-59
2021/05/22 02:27:48;;;;;;;6.43;2.40;;;;;;;6.96;86.21;98237.69;5073466;28;20025;-58
2021/05/22 02:30:14;;;;;;;11.13;3.05;;;;;;;7.00;85.66;98232.69;5074339;28;20033;-59
2021/05/22 02:32:41;;;;;;;17.25;3.30;;;;;;;7.14;85.68;98223.31;5073510;28;20473;-59
2021/05/22 02:35:07;;;;;;;9.35;2.90;;;;;;;7.10;85.25;98217.66;5056454;28;20056;-59
2021/05/22 02:37:33;;;;;;;9.30;2.50;;;;;;;7.08;85.30;98229.59;5073392;28;20060;-59
2021/05/22 02:40:20;;;;;;;13.30;2.72;;;;;;;7.13;85.66;98227.00;5056755;28;20505;-61
2021/05/22 02:43:03;;;;;;;10.18;2.63;;;;;;;7.08;85.05;98230.41;5056727;28;20048;-58
2021/05/22 02:45:29;;;;;;;12.07;2.80;;;;;;;7.05;85.76;98241.56;5057397;28;20112;-58
2021/05/22 02:47:55;;;;;;;10.88;3.05;;;;;;;7.07;85.64;98239.47;5074397;28;20055;-58
2021/05/22 02:50:21;;;;;;;13.65;2.88;;;;;;;7.06;85.46;98237.03;5073788;28;20047;-59
2021/05/22 02:52:46;;;;;;;13.27;3.08;;;;;;;7.15;85.18;98230.25;5073146;28;20020;-58
2021/05/22 02:55:12;;;;;;;8.57;2.90;;;;;;;7.28;84.48;98229.91;5056025;28;20032;-59
2021/05/22 02:57:40;;;;;;;9.13;3.05;;;;;;;7.37;84.14;98232.16;5073060;28;20056;-59
2021/05/22 03:00:06;;;;;;;8.90;2.70;;;;;;;7.40;84.48;98237.78;5055984;28;20020;-59
2021/05/22 03:02:35;;;;;;;8.40;2.75;;;;;;;7.58;83.76;98228.69;5073986;28;20490;-59
2021/05/22 03:05:05;;;;;;;7.30;3.05;;;;;;;7.56;84.01;98236.13;5072429;28;20025;-59
2021/05/22 03:07:30;;;;;;;9.55;2.80;;;;;;;7.61;83.57;98243.41;5072516;28;20040;-59
2021/05/22 03:09:56;;;;;;;11.13;3.00;;;;;;;7.70;82.94;98226.72;5056152;28;20035;-58
2021/05/22 03:12:24;;;;;;;8.20;2.97;;;;;;;7.74;82.63;98233.19;5073481;28;20028;-59
2021/05/22 03:14:49;;;;;;;6.32;2.63;;;;;;;7.82;82.45;98233.81;5072733;28;20029;-59
2021/05/22 03:17:15;;;;;;;10.98;2.90;;;;;;;7.78;82.73;98234.28;5073304;28;20044;-59
2021/05/22 03:19:40;;;;;;;9.77;3.30;;;;;;;7.82;82.33;98234.59;5073655;28;20036;-59
2021/05/22 03:22:06;;;;;;;11.63;2.85;;;;;;;7.91;81.54;98241.13;5073323;28;20028;-59
2021/05/22 03:24:31;;;;;;;9.23;2.50;;;;;;;7.92;81.57;98242.72;5073637;28;20028;-59
2021/05/22 03:26:57;;;;;;;12.95;3.03;;;;;;;7.86;82.22;98240.22;5073321;28;20135;-59
2021/05/22 03:29:23;;;;;;;11.65;3.08;;;;;;;7.87;82.25;98242.66;5072947;28;20048;-58
2021/05/22 03:31:48;;;;;;;7.03;2.58;;;;;;;7.87;82.44;98242.66;5073050;28;20398;-59
2021/05/22 03:34:14;;;;;;;8.35;2.70;;;;;;;7.97;81.92;98232.09;5073808;28;20356;-59
2021/05/22 03:36:39;;;;;;;11.00;2.95;;;;;;;7.95;81.60;98234.22;5072889;28;20082;-59
2021/05/22 03:39:05;;;;;;;14.38;2.50;;;;;;;7.96;81.49;98240.34;5073570;28;20028;-59
2021/05/22 03:41:30;;;;;;;8.15;2.58;;;;;;;7.98;80.51;98232.91;5073109;28;20143;-58
2021/05/22 03:43:56;;;;;;;10.73;2.65;;;;;;;8.00;79.87;98234.28;5073396;28;20389;-59
2021/05/22 03:46:21;;;;;;;13.43;2.58;;;;;;;7.96;80.59;98241.19;5071577;28;20035;-58
2021/05/22 03:48:46;;;;;;;8.52;2.85;;;;;;;7.96;81.11;98240.34;5073173;28;20459;-58
2021/05/22 03:51:12;;;;;;;8.30;2.40;;;;;;;7.88;80.83;98238.94;5088372;28;20041;-59
2021/05/22 03:53:37;;;;;;;9.13;2.58;;;;;;;7.97;79.73;98231.31;5073363;28;20044;-58
2021/05/22 03:56:03;;;;;;;8.20;2.40;;;;;;;7.94;79.70;98237.94;5072645;28;20405;-58
2021/05/22 03:58:29;;;;;;;8.80;2.33;;;;;;;7.98;79.14;98230.25;5073144;28;20036;-59
2021/05/22 04:00:54;;;;;;;13.18;2.50;;;;;;;8.01;78.79;98229.72;5072644;28;20044;-59
2021/05/22 04:03:19;;;;;;;9.00;2.63;;;;;;;7.94;78.95;98231.81;5073094;28;20032;-58
2021/05/22 04:05:45;;;;;;;6.95;2.30;;;;;;;8.00;78.29;98226.28;5072738;28;20040;-59
2021/05/22 04:08:11;;;;;;;10.30;2.60;;;;;;;8.04;77.72;98231.94;5072908;28;20045;-58
2021/05/22 04:10:37;;;;;;;4.68;2.25;;;;;;;7.99;78.16;98219.34;5069439;28;20548;-59
2021/05/22 04:13:02;;;;;;;9.95;2.20;;;;;;;7.97;77.89;98237.44;5073008;28;20032;-59
2021/05/22 04:15:28;;;;;;;6.22;2.00;;;;;;;7.94;78.57;98227.28;5071439;28;20054;-59
2021/05/22 04:17:53;;;;;;;14.88;2.80;;;;;;;7.99;78.25;98231.88;5072964;28;20069;-58
2021/05/22 04:20:19;;;;;;;9.93;2.50;;;;;;;7.98;77.69;98225.69;5072495;28;20028;-59
2021/05/22 04:22:44;;;;;;;8.05;2.67;;;;;;;7.98;77.65;98216.91;5073039;28;20033;-59
2021/05/22 04:25:10;;;;;;;10.90;2.42;;;;;;;8.07;76.56;98233.28;5071326;28;20417;-59
2021/05/22 04:27:36;;;;;;;5.32;1.80;;;;;;;8.03;77.06;98218.81;5072829;28;20021;-59
2021/05/22 04:30:01;;;;;;;11.02;2.08;;;;;;;7.98;77.41;98217.69;5072263;28;20111;-59
2021/05/22 04:32:26;;;;;;;10.18;2.20;;;;;;;8.08;76.95;98216.22;5072798;28;20032;-59
2021/05/22 04:34:52;;;;;;;8.90;2.50;;;;;;;8.08;76.90;98230.34;5072766;28;20043;-59
2021/05/22 04:37:17;;;;;;;5.88;2.10;;;;;;;8.19;76.32;98231.28;5072374;28;20090;-59
2021/05/22 04:39:43;;;;;;;9.35;2.20;;;;;;;8.10;76.75;98230.13;5072835;28;20032;-59
2021/05/22 04:42:08;;;;;;;7.35;2.28;;;;;;;8.08;76.61;98232.22;5075211;28;20041;-59
2021/05/22 04:44:33;;;;;;;9.35;2.22;;;;;;;8.08;76.60;98229.56;5075592;28;20020;-59
2021/05/22 04:46:59;;;;;;;6.55;2.13;;;;;;;8.17;76.60;98242.19;5076191;28;20062;-59
2021/05/22 04:49:27;;;;;;;10.90;2.42;;;;;;;8.13;76.60;98235.75;5076729;28;20470;-59
2021/05/22 04:51:56;;;;;;;8.27;2.20;;;;;;;8.25;75.40;98240.94;5076350;28;20055;-59
2021/05/22 04:54:22;;;;;;;9.32;2.20;;;;;;;8.32;75.37;98230.88;5076512;28;20025;-59
2021/05/22 04:56:47;;;;;;;7.72;1.90;;;;;;;8.30;75.09;98240.19;5076222;28;20082;-58
2021/05/22 04:59:13;;;;;;;13.38;2.60;;;;;;;8.31;75.09;98221.28;5076498;28;20028;-59
2021/05/22 05:01:40;;;;;;;7.03;2.05;;;;;;;8.59;74.79;98224.75;5076010;28;20033;-59
2021/05/22 05:04:08;;;;;;;9.57;2.55;;;;;;;10.24;67.95;98225.41;5076566;28;20047;-59
2021/05/22 05:06:34;;;;;;;9.85;2.20;;;;;;;12.14;59.70;98227.88;5076008;28;20033;-59
2021/05/22 05:08:59;;;;;;;6.38;2.10;;;;;;;11.68;59.90;98220.75;5074951;28;20450;-59
2021/05/22 05:11:25;;;;;;;5.60;2.08;;;;;;;11.36;61.10;98219.25;5074660;28;20201;-59
2021/05/22 05:13:50;;;;;;;7.97;2.08;;;;;;;13.58;54.51;98223.75;5074978;28;20016;-59
2021/05/22 05:16:15;;;;;;;10.18;2.10;;;;;;;11.35;62.21;98212.28;5075668;28;20028;-59
2021/05/22 05:18:41;;;;;;;10.43;2.30;;;;;;;11.02;64.37;98214.47;5076052;28;20025;-59
2021/05/22 05:21:07;;;;;;;9.23;2.40;;;;;;;14.52;51.77;98224.16;5075706;28;20113;-59
2021/05/22 05:23:32;;;;;;;6.55;1.92;;;;;;;14.14;53.22;98235.72;5076113;28;20028;-59
2021/05/22 05:25:58;;;;;;;9.77;2.30;;;;;;;13.31;54.89;98234.28;5073882;28;20044;-59
2021/05/22 05:28:23;;;;;;;7.28;2.10;;;;;;;13.69;53.93;98234.41;5075857;28;20115;-59
2021/05/22 05:30:49;;;;;;;8.38;1.98;;;;;;;13.73;53.22;98224.66;5075517;28;20048;-59
2021/05/22 05:33:14;;;;;;;6.32;2.05;;;;;;;13.14;55.62;98232.78;5076156;28;20360;-59
2021/05/22 05:35:39;;;;;;;5.70;1.80;;;;;;;14.85;50.46;98242.00;5075471;28;20548;-59
2021/05/22 05:38:05;;;;;;;6.43;1.83;;;;;;;13.18;55.51;98251.84;5075972;28;20028;-59
2021/05/22 05:40:31;;;;;;;7.38;2.15;;;;;;;14.03;53.44;98231.56;5075368;28;20031;-58
2021/05/22 05:42:57;;;;;;;7.00;2.03;;;;;;;13.91;53.09;98237.38;5075638;28;20370;-59
2021/05/22 05:45:22;;;;;;;8.88;1.77;;;;;;;15.77;48.21;98252.31;5075494;28;20060;-59
2021/05/22 05:47:51;;;;;;;9.90;2.63;;;;;;;14.99;49.41;98252.03;5075860;28;20366;-59
2021/05/22 05:50:16;;;;;;;7.72;1.75;;;;;;;13.44;54.13;98249.75;5075061;28;20035;-59
2021/05/22 05:52:42;;;;;;;7.78;1.92;;;;;;;11.70;59.45;98242.75;5074650;28;20028;-59
2021/05/22 05:55:07;;;;;;;5.57;1.90;;;;;;;11.46;61.45;98234.53;5075075;28;20425;-59
2021/05/22 05:57:33;;;;;;;7.95;2.05;;;;;;;10.87;63.85;98232.47;5075437;28;20474;-58
2021/05/22 06:00:00;;;;;;;9.75;2.00;;;;;;;11.13;62.04;98242.09;5075295;28;20037;-59
2021/05/22 06:02:25;;;;;;;7.68;2.40;;;;;;;11.00;64.01;98248.78;5074935;28;20029;-59
2021/05/22 06:04:52;;;;;;;6.30;2.00;;;;;;;12.83;57.29;98255.63;5075300;28;20509;-58
2021/05/22 06:07:18;;;;;;;9.45;2.10;;;;;;;12.02;60.35;98241.59;5074700;28;20048;-59
2021/05/22 06:09:45;;;;;;;7.70;1.95;;;;;;;13.60;55.26;98250.38;5075205;28;20039;-59
2021/05/22 06:12:11;;;;;;;11.77;2.15;;;;;;;13.13;56.03;98236.56;5074613;28;20029;-59
2021/05/22 06:14:38;;;;;;;13.02;2.40;;;;;;;13.38;54.99;98240.13;5070590;28;20021;-59
2021/05/22 06:17:04;;;;;;;13.15;2.50;;;;;;;13.98;53.28;98237.81;5074545;28;20398;-59
2021/05/22 06:19:29;;;;;;;6.70;2.10;;;;;;;13.89;54.27;98250.31;5075108;28;20021;-58
2021/05/22 06:21:55;;;;;;;8.75;2.30;;;;;;;13.97;53.78;98249.66;5074548;28;20049;-58
2021/05/22 06:24:20;;;;;;;8.25;2.33;;;;;;;15.09;51.50;98241.88;5075050;28;20031;-59
2021/05/22 06:26:45;;;;;;;6.80;2.00;;;;;;;15.32;51.04;98248.25;5074466;28;20449;-58
2021/05/22 06:29:13;;;;;;;10.68;2.40;;;;;;;14.42;53.28;98252.84;5075177;28;20033;-59
2021/05/22 06:31:39;;;;;;;7.20;2.05;;;;;;;14.12;54.59;98256.75;5074343;28;20036;-59
2021/05/22 06:34:04;;;;;;;7.68;1.95;;;;;;;12.45;59.40;98249.97;5074712;28;20032;-59
2021/05/22 06:36:30;;;;;;;9.00;2.00;;;;;;;11.45;63.79;98247.13;5072930;28;20036;-59
2021/05/22 06:38:56;;;;;;;9.40;1.98;;;;;;;11.05;65.43;98249.88;5074600;28;20036;-59
2021/05/22 06:41:21;;;;;;;8.52;2.40;;;;;;;11.54;63.76;98257.31;5074180;28;20079;-59
2021/05/22 06:43:47;;;;;;;9.15;2.03;;;;;;;11.07;66.30;98258.47;5074474;28;20032;-59
2021/05/22 06:48:38;;;;;;;6.10;1.92;;;;;;;10.33;67.81;98260.50;5074535;28;20027;-59
2021/05/22 06:51:04;;;;;;;6.38;1.45;;;;;;;10.37;68.43;98261.59;5073901;28;20033;-59
2021/05/22 06:53:32;;;;;;;10.15;2.20;;;;;;;10.46;67.62;98276.09;5074286;28;20143;-59
2021/05/22 06:55:58;;;;;;;10.43;2.22;;;;;;;10.52;67.76;98266.19;5073909;28;20029;-59
2021/05/22 06:58:23;;;;;;;8.20;1.95;;;;;;;10.52;67.44;98255.47;5074353;28;20066;-59
2021/05/22 07:00:49;;;;;;;8.05;2.00;;;;;;;10.32;68.33;98269.63;5073996;28;20052;-59
2021/05/22 07:03:14;;;;;;;4.78;1.80;;;;;;;10.13;67.80;98264.75;5074175;28;20037;-59
2021/05/22 07:05:39;;;;;;;9.23;2.15;;;;;;;10.30;68.74;98266.41;5072560;28;20048;-59
2021/05/22 07:08:05;;;;;;;6.40;1.80;;;;;;;10.37;69.87;98277.69;5073968;28;20044;-59
2021/05/22 07:10:31;;;;;;;9.57;2.25;;;;;;;9.92;69.48;98271.06;5073556;28;20360;-58
2021/05/22 07:12:56;;;;;;;5.22;1.80;;;;;;;10.15;69.30;98281.31;5073903;28;20028;-58
2021/05/22 07:15:22;;;;;;;10.95;2.22;;;;;;;10.12;69.78;98276.50;5073730;28;20052;-59
2021/05/22 07:17:47;;;;;;;5.68;1.80;;;;;;;9.64;71.69;98291.00;5073938;28;20040;-59
2021/05/22 07:20:13;;;;;;;4.97;1.83;;;;;;;9.67;70.47;98285.94;5073449;28;20020;-59
2021/05/22 07:22:39;;;;;;;6.35;1.88;;;;;;;9.55;70.70;98293.34;5073744;28;20017;-59
2021/05/22 07:25:04;;;;;;;7.93;2.00;;;;;;;9.53;71.30;98294.66;5073122;28;20367;-59
2021/05/22 07:27:34;;;;;;;9.07;2.05;;;;;;;9.60;70.73;98296.06;5073746;28;20016;-58
2021/05/22 07:30:01;;;;;;;5.60;1.98;;;;;;;9.79;70.25;98301.00;5073832;28;20504;-59
2021/05/22 07:32:26;;;;;;;5.18;1.50;;;;;;;9.39;70.78;98295.13;5073206;28;20086;-59
2021/05/22 07:34:52;;;;;;;5.20;1.55;;;;;;;9.39;71.52;98288.97;5073519;28;20016;-59
2021/05/22 07:37:17;;;;;;;7.72;2.00;;;;;;;9.54;71.28;98307.00;5072875;28;20036;-59
2021/05/22 07:39:43;;;;;;;7.28;2.08;;;;;;;9.95;70.17;98297.31;5073551;28;20021;-58
2021/05/22 07:42:08;;;;;;;4.32;1.90;;;;;;;9.98;69.38;98291.44;5073011;28;20387;-58
2021/05/22 07:44:34;;;;;;;6.78;1.65;;;;;;;10.26;69.42;98308.13;5073648;28;20013;-58
2021/05/22 07:46:59;;;;;;;3.03;1.40;;;;;;;9.93;69.06;98302.94;5073156;28;20036;-58
2021/05/22 07:49:37;;;;;;;5.78;1.67;;;;;;;9.97;69.12;98292.50;5073369;28;20030;-59
2021/05/22 07:52:02;;;;;;;6.85;1.90;;;;;;;10.18;68.48;98306.78;5073042;28;20059;-58
2021/05/22 07:54:28;;;;;;;4.13;1.77;;;;;;;10.38;68.38;98300.69;5073448;28;20028;-58
2021/05/22 07:56:53;;;;;;;7.00;1.50;;;;;;;10.48;67.46;98305.28;5073098;28;20394;-59
2021/05/22 07:59:19;;;;;;;7.25;2.17;;;;;;;10.84;65.94;98310.72;5073454;28;20024;-58
2021/05/22 08:01:44;;;;;;;7.22;2.28;;;;;;;10.78;66.33;98309.91;5071590;28;20036;-59
2021/05/22 08:04:09;;;;;;;4.40;1.55;;;;;;;10.51;66.16;98321.66;5072018;28;20016;-59
2021/05/22 08:06:35;;;;;;;4.30;1.70;;;;;;;10.54;64.32;98306.94;5072743;28;20402;-59
2021/05/22 08:09:00;;;;;;;4.13;1.50;;;;;;;10.50;65.57;98308.50;5072875;28;20052;-59
2021/05/22 08:11:26;;;;;;;9.07;1.80;;;;;;;10.56;65.96;98307.47;5072754;28;20097;-59
2021/05/22 08:13:51;;;;;;;5.20;1.88;;;;;;;10.54;66.52;98314.97;5073202;28;20025;-59
2021/05/22 08:16:17;;;;;;;7.25;1.90;;;;;;;10.56;66.76;98308.28;5072198;28;20411;-59
2021/05/22 08:18:42;;;;;;;7.68;1.85;;;;;;;10.41;67.26;98321.63;5073094;28;20078;-59
2021/05/22 08:21:07;;;;;;;6.50;1.85;;;;;;;10.35;67.83;98311.94;5072561;28;20044;-58
2021/05/22 08:23:33;;;;;;;4.65;1.65;;;;;;;10.29;67.03;98324.53;5063916;28;20079;-59
2021/05/22 08:25:58;;;;;;;5.75;1.70;;;;;;;10.10;68.26;98308.06;5052518;28;20037;-59
2021/05/22 08:28:27;;;;;;;11.85;2.25;;;;;;;10.13;67.59;98307.56;5053138;28;20025;-58
2021/05/22 08:30:52;;;;;;;6.35;2.00;;;;;;;10.09;67.27;98309.16;5052326;28;20029;-59
2021/05/22 08:33:17;;;;;;;5.70;1.52;;;;;;;10.29;67.46;98323.72;5051639;28;20021;-59
2021/05/22 08:35:43;;;;;;;8.30;2.22;;;;;;;10.26;67.46;98310.81;5052483;28;20368;-59
2021/05/22 08:38:09;;;;;;;9.45;2.45;;;;;;;10.29;67.60;98329.09;5052644;28;20040;-59
2021/05/22 08:40:34;;;;;;;10.82;1.80;;;;;;;10.32;66.75;98328.56;5051046;28;20033;-59
2021/05/22 08:43:00;;;;;;;4.40;1.55;;;;;;;10.31;67.81;98332.31;5051673;28;20479;-58
2021/05/22 08:45:25;;;;;;;8.32;1.70;;;;;;;10.49;66.73;98323.78;5052361;28;20037;-59
2021/05/22 08:47:52;;;;;;;4.25;1.45;;;;;;;10.58;65.44;98321.38;5051533;28;20017;-59
2021/05/22 08:50:18;;;;;;;4.57;1.80;;;;;;;10.81;65.90;98338.88;5052057;28;20028;-59
2021/05/22 08:52:44;;;;;;;8.25;2.00;;;;;;;10.97;65.21;98329.78;5052541;28;20017;-59
2021/05/22 08:55:10;;;;;;;5.03;1.70;;;;;;;10.92;65.07;98337.81;5051114;28;20043;-59
2021/05/22 08:57:36;;;;;;;6.90;1.80;;;;;;;11.36;63.96;98325.78;5052608;28;20087;-58
2021/05/22 09:00:01;;;;;;;6.63;1.63;;;;;;;11.10;63.93;98333.00;5052134;28;20021;-59
2021/05/22 09:02:27;;;;;;;4.47;1.70;;;;;;;10.80;66.15;98340.72;5052692;28;20021;-60
2021/05/22 09:05:13;;;;;;;5.90;1.73;;;;;;;10.95;67.06;98353.34;5051246;28;20108;-59
2021/05/22 09:07:43;;;;;;;4.57;1.90;;;;;;;10.98;68.15;98352.84;5032426;28;20061;-59
2021/05/22 09:10:09;;;;;;;5.63;1.83;;;;;;;10.87;69.11;98345.84;5032286;28;20029;-59
2021/05/22 09:12:39;;;;;;;10.60;1.90;;;;;;;10.86;69.68;98354.97;5032748;28;20072;-59
2021/05/22 09:15:10;;;;;;;8.13;1.75;;;;;;;10.76;68.42;98341.56;5032307;28;20047;-60
2021/05/22 09:17:36;;;;;;;3.85;1.88;;;;;;;10.89;70.00;98338.34;5032671;28;20033;-59
2021/05/22 09:20:19;;;;;;;6.93;1.88;;;;;;;12.08;65.81;98345.25;5032188;28;20026;-59
2021/05/22 09:22:53;;;;;;;4.20;1.40;;;;;;;11.77;65.19;98337.25;5031548;28;20040;-60
2021/05/22 09:25:19;;;;;;;6.85;1.80;;;;;;;13.29;60.41;98342.19;5031196;28;20040;-59
2021/05/22 09:27:44;;;;;;;5.22;1.70;;;;;;;13.88;58.69;98340.31;5033213;28;20465;-60
2021/05/22 09:30:11;;;;;;;4.15;1.50;;;;;;;13.71;57.54;98366.88;5034756;28;20282;-59
2021/05/22 09:32:37;;;;;;;8.43;1.70;;;;;;;12.76;59.95;98346.56;5036436;28;20064;-60
2021/05/22 09:35:04;;;;;;;5.05;1.73;;;;;;;12.16;62.93;98346.59;5036220;28;20026;-59
2021/05/22 09:37:30;;;;;;;6.07;1.85;;;;;;;13.50;57.93;98342.78;5056284;28;20028;-60
2021/05/22 09:39:56;;;;;;;5.15;1.73;;;;;;;13.20;59.28;98359.19;5054861;28;20025;-60
2021/05/22 09:42:25;;;;;;;4.43;1.42;;;;;;;12.95;58.75;98342.13;5055497;28;20037;-60
2021/05/22 09:44:51;;;;;;;3.53;1.63;;;;;;;13.05;60.31;98360.88;5055919;28;20025;-59
2021/05/22 09:47:17;;;;;;;7.65;1.67;;;;;;;13.23;59.61;98380.13;5055584;28;20087;-60
2021/05/22 09:49:42;;;;;;;6.20;1.65;;;;;;;12.93;59.13;98363.13;5055615;28;20036;-59
2021/05/22 09:52:09;;;;;;;4.60;1.70;;;;;;;13.86;56.29;98369.41;5053957;28;20033;-60
2021/05/22 09:54:53;;;;;;;4.85;1.25;;;;;;;14.22;55.34;98369.81;5055617;28;20060;-59
2021/05/22 09:57:19;;;;;;;4.72;1.83;;;;;;;14.20;55.64;98365.81;5055062;28;20041;-59
2021/05/22 10:00:13;;;;;;;3.67;1.50;;;;;;;14.52;53.66;98375.94;5055366;28;20056;-59
2021/05/22 10:02:46;;;;;;;7.57;2.00;;;;;;;14.96;53.51;98376.75;5055239;28;20095;-60
2021/05/22 10:05:19;;;;;;;5.05;1.60;;;;;;;15.51;51.90;98374.28;5054837;28;20036;-59
2021/05/22 10:07:45;;;;;;;5.00;1.70;;;;;;;16.94;48.46;98379.69;5053821;28;20045;-60
2021/05/22 10:10:12;;;;;;;7.30;1.70;;;;;;;16.17;50.01;98375.03;5054750;28;20360;-59
2021/05/22 10:12:39;;;;;;;5.22;1.52;;;;;;;15.52;50.15;98381.28;5055248;28;20151;-59
2021/05/22 10:15:05;;;;;;;4.93;1.73;;;;;;;14.70;52.31;98393.25;5053689;28;20370;-60
2021/05/22 10:17:31;;;;;;;3.33;1.40;;;;;;;14.15;52.93;98382.84;5055182;28;20124;-59
2021/05/22 10:19:56;;;;;;;4.80;1.90;;;;;;;14.22;52.19;98369.81;5053761;28;20459;-59
2021/05/22 10:22:22;;;;;;;6.72;2.17;;;;;;;13.06;54.50;98381.34;5056153;28;20029;-59
2021/05/22 10:24:47;;;;;;;7.65;1.80;;;;;;;13.25;54.18;98394.13;5073531;28;20025;-60
2021/05/22 10:27:13;;;;;;;7.07;2.10;;;;;;;13.10;54.34;98379.72;5073243;28;20040;-60
2021/05/22 10:29:38;;;;;;;9.57;2.22;;;;;;;13.15;55.39;98376.97;5073676;28;20031;-60
2021/05/22 10:32:04;;;;;;;7.85;2.10;;;;;;;13.15;57.26;98403.88;5074438;28;20150;-60
2021/05/22 10:34:35;;;;;;;5.13;1.58;;;;;;;12.61;57.62;98399.34;5074735;28;20405;-60
2021/05/22 10:37:00;;;;;;;5.45;1.92;;;;;;;12.80;57.32;98401.38;5074121;28;20522;-60
2021/05/22 10:39:40;;;;;;;6.00;1.75;;;;;;;13.04;56.46;98413.09;5056339;28;20091;-60
2021/05/22 10:42:20;;;;;;;6.10;1.80;;;;;;;13.98;52.96;98415.63;5072897;28;20044;-60
2021/05/22 10:44:46;;;;;;;;;;;;;;;14.81;49.54;98410.94;5074904;28;20474;-60
2021/05/22 10:47:13;;;;;;;7.90;1.65;;;;;;;14.81;49.29;98418.22;5074213;28;19916;-59
2021/05/22 10:49:54;;;;;;;4.63;1.60;;;;;;;15.46;48.51;98414.88;5074475;28;20463;-60
2021/05/22 10:52:22;;;;;;;7.32;2.08;;;;;;;14.59;49.66;98418.75;5074033;28;20036;-59
2021/05/22 10:55:03;;;;;;;9.55;1.98;;;;;;;14.51;49.66;98411.28;5074349;28;20016;-59
2021/05/22 10:57:28;;;;;;;4.50;1.98;;;;;;;14.23;50.72;98421.84;5073965;28;20149;-59
2021/05/22 11:00:16;;;;;;;7.40;2.10;;;;;;;14.24;51.71;98418.84;5074275;28;20477;-59
2021/05/22 11:02:44;;;;;;;6.45;2.30;;;;;;;14.62;50.06;98410.09;5074010;28;20048;-59
2021/05/22 11:05:32;;;;;;;6.57;1.70;;;;;;;14.64;50.31;98413.31;5073916;28;20029;-59
2021/05/22 11:08:03;;;;;;;6.53;1.80;;;;;;;14.48;51.42;98417.25;5073783;28;20063;-59
2021/05/22 11:10:37;;;;;;;7.25;1.85;;;;;;;14.10;52.54;98438.66;5073755;28;20039;-59
2021/05/22 11:13:09;;;;;;;6.80;1.98;;;;;;;13.51;52.39;98427.88;5073930;28;20471;-59
2021/05/22 11:15:38;;;;;;;5.32;1.98;;;;;;;13.80;53.13;98425.22;5073481;28;20047;-59
2021/05/22 11:18:04;;;;;;;6.88;1.77;;;;;;;14.52;51.77;98426.38;5073818;28;20043;-59
2021/05/22 11:20:30;;;;;;;8.65;2.50;;;;;;;14.59;50.05;98424.16;5073313;28;20032;-59
2021/05/22 11:22:57;;;;;;;8.52;2.20;;;;;;;15.24;48.67;98420.88;5073715;28;20027;-59
2021/05/22 11:25:23;;;;;;;6.82;2.08;;;;;;;15.04;49.00;98403.06;5073601;28;20379;-59
2021/05/22 11:27:56;;;;;;;10.02;2.05;;;;;;;15.12;48.42;98425.91;5073751;28;20021;-60
2021/05/22 11:30:27;;;;;;;7.55;2.33;;;;;;;14.92;49.56;98416.97;5073189;28;20127;-59
2021/05/22 11:33:00;;;;;;;7.85;1.75;;;;;;;14.05;50.63;98427.94;5073582;28;20387;-59
2021/05/22 11:35:31;;;;;;;9.27;2.28;;;;;;;13.30;55.70;98437.97;5073372;28;20044;-59
2021/05/22 11:38:21;;;;;;;12.18;2.30;;;;;;;12.87;57.20;98440.34;5073664;28;20079;-59